createdAt,value
2022-10-12T00:03:04.890Z,91.03
2022-10-12T00:08:07.087Z,91.10
2022-10-12T00:13:09.532Z,91.18
2022-10-12T00:18:11.667Z,91.08
2022-10-12T00:23:14.740Z,91.07
2022-10-12T00:28:16.647Z,91.40
2022-10-12T00:33:19.605Z,91.21
2022-10-12T00:38:22.475Z,91.37
2022-10-12T00:43:30.671Z,91.35
2022-10-12T00:48:33.129Z,91.57
2022-10-12T00:53:40.906Z,91.33
2022-10-12T00:58:42.451Z,91.47
2022-10-12T01:03:44.714Z,91.55
2022-10-12T01:08:48.241Z,91.54
2022-10-12T01:13:50.108Z,91.65
2022-10-12T01:19:01.110Z,91.68
2022-10-12T01:24:24.876Z,91.81
2022-10-12T01:30:04.362Z,91.76
2022-10-12T01:35:34.650Z,91.84
2022-10-12T01:40:42.215Z,91.85
2022-10-12T01:45:44.253Z,91.87
2022-10-12T01:50:52.372Z,91.78
2022-10-12T01:56:20.279Z,91.98
2022-10-12T02:01:40.086Z,92.18
2022-10-12T02:06:48.088Z,92.22
2022-10-12T02:11:54.903Z,92.08
2022-10-12T02:17:00.700Z,92.07
2022-10-12T02:22:06.063Z,92.13
2022-10-12T02:27:10.661Z,92.10
2022-10-12T02:32:29.941Z,92.17
2022-10-12T02:37:45.126Z,92.29
2022-10-12T02:48:23.404Z,92.33
2022-10-12T02:53:28.361Z,92.28
2022-10-12T02:58:30.362Z,92.38
2022-10-12T03:03:32.109Z,92.28
2022-10-12T03:08:33.900Z,92.23
2022-10-12T03:13:35.698Z,92.22
2022-10-12T03:18:38.374Z,92.56
2022-10-12T03:23:40.038Z,92.35
2022-10-12T03:28:41.904Z,92.50
2022-10-12T03:33:43.867Z,92.43
2022-10-12T03:38:46.418Z,92.57
2022-10-12T03:43:48.233Z,92.37
2022-10-12T03:48:49.830Z,92.72
2022-10-12T03:53:51.707Z,92.45
2022-10-12T03:58:54.448Z,92.55
2022-10-12T04:03:56.137Z,92.75
2022-10-12T04:08:57.839Z,92.52
2022-10-12T04:13:59.730Z,92.62
2022-10-12T04:19:01.463Z,92.54
2022-10-12T04:24:03.287Z,92.46
2022-10-12T04:29:05.325Z,92.78
2022-10-12T04:34:07.347Z,92.75
2022-10-12T04:39:09.316Z,92.82
2022-10-12T04:44:11.178Z,92.86
2022-10-12T04:49:12.933Z,92.71
2022-10-12T04:54:14.722Z,92.80
2022-10-12T04:59:16.353Z,92.78
2022-10-12T05:04:18.206Z,92.73
2022-10-12T05:09:20.233Z,92.94
2022-10-12T05:14:22.072Z,93.01
2022-10-12T05:19:24.355Z,92.89
2022-10-12T05:24:26.248Z,93.00
2022-10-12T05:29:28.415Z,92.76
2022-10-12T05:34:30.285Z,92.87
2022-10-12T05:39:32.352Z,92.71
2022-10-12T05:44:33.998Z,92.79
2022-10-12T05:49:36.741Z,93.10
2022-10-12T05:54:39.225Z,92.89
2022-10-12T05:59:42.428Z,92.84
2022-10-12T06:04:44.173Z,93.04
2022-10-12T06:09:47.656Z,92.96
2022-10-12T06:14:49.848Z,93.34
2022-10-12T06:19:51.640Z,92.94
2022-10-12T06:24:53.578Z,93.06
2022-10-12T06:29:55.254Z,92.98
2022-10-12T06:34:56.890Z,93.11
2022-10-12T06:39:58.881Z,93.14
2022-10-12T06:45:00.853Z,93.28
2022-10-12T06:50:02.702Z,93.18
2022-10-12T06:55:05.579Z,93.34
2022-10-12T07:00:08.210Z,93.12
2022-10-12T07:05:09.936Z,93.18
2022-10-12T07:10:11.679Z,93.10
2022-10-12T07:15:13.614Z,93.53
2022-10-12T07:20:16.098Z,93.58
2022-10-12T07:25:17.834Z,92.26
2022-10-12T07:30:19.601Z,86.62
2022-10-12T07:35:21.462Z,81.84
2022-10-12T07:40:23.406Z,79.86
2022-10-12T07:45:28.656Z,77.10
2022-10-12T07:50:30.927Z,69.62
2022-10-12T07:55:32.998Z,67.23
2022-10-12T08:00:34.781Z,68.02
2022-10-12T08:05:38.109Z,70.93
2022-10-12T08:10:39.997Z,74.19
2022-10-12T08:15:42.099Z,76.10
2022-10-12T08:20:44.453Z,76.10
2022-10-12T08:25:57.467Z,75.18
2022-10-12T08:31:00.890Z,74.70
2022-10-12T08:36:04.785Z,74.21
2022-10-12T08:41:45.693Z,72.90
2022-10-12T08:46:48.203Z,71.43
2022-10-12T08:51:57.850Z,69.50
2022-10-12T08:56:59.731Z,69.20
2022-10-12T09:02:34.750Z,68.64
2022-10-12T09:07:50.899Z,68.53
2022-10-12T09:13:09.545Z,67.88
2022-10-12T09:18:30.745Z,66.86
2022-10-12T09:23:38.591Z,66.48
2022-10-12T09:28:43.837Z,65.73
2022-10-12T09:34:08.996Z,65.58
2022-10-12T09:39:19.100Z,64.73
2022-10-12T09:44:40.371Z,63.88
2022-10-12T09:49:44.728Z,63.58
2022-10-12T09:54:53.309Z,63.61
2022-10-12T09:59:55.696Z,62.89
2022-10-12T10:05:22.158Z,62.49
2022-10-12T10:10:30.080Z,63.20
2022-10-12T10:15:34.810Z,62.13
2022-10-12T10:20:50.770Z,60.94
2022-10-12T10:25:56.516Z,60.51
2022-10-12T10:31:04.339Z,60.06
2022-10-12T10:36:18.227Z,59.71
2022-10-12T10:41:20.472Z,58.88
2022-10-12T10:46:25.780Z,58.21
2022-10-12T10:52:04.280Z,58.50
2022-10-12T10:57:09.776Z,58.54
2022-10-12T11:02:21.692Z,58.13
2022-10-12T11:07:23.460Z,58.28
2022-10-12T11:12:35.675Z,58.23
2022-10-12T11:17:47.172Z,57.77
2022-10-12T11:23:01.470Z,57.78
2022-10-12T11:28:02.928Z,58.15
2022-10-12T11:33:27.593Z,58.13
2022-10-12T11:38:33.769Z,57.94
2022-10-12T11:44:04.741Z,57.31
2022-10-12T11:49:19.326Z,57.39
2022-10-12T11:54:31.460Z,57.56
2022-10-12T11:59:41.777Z,56.71
2022-10-12T12:04:46.190Z,56.85
2022-10-12T12:09:50.580Z,56.13
2022-10-12T12:14:55.372Z,55.65
2022-10-12T12:20:02.664Z,54.81
2022-10-12T12:25:13.093Z,54.58
2022-10-12T12:30:17.527Z,55.01
2022-10-12T12:35:21.664Z,55.35
2022-10-12T12:40:23.997Z,55.01
2022-10-12T12:45:32.145Z,54.79
2022-10-12T12:50:38.145Z,54.93
2022-10-12T12:56:05.424Z,54.90
2022-10-12T13:01:22.820Z,54.82
2022-10-12T13:06:57.055Z,54.97
2022-10-12T13:12:13.739Z,54.86
2022-10-12T13:17:49.207Z,55.25
2022-10-12T13:22:54.815Z,54.98
2022-10-12T13:27:58.306Z,55.26
2022-10-12T13:33:09.707Z,55.26
2022-10-12T13:38:15.058Z,55.75
2022-10-12T13:43:22.621Z,56.09
2022-10-12T13:48:46.320Z,56.36
2022-10-12T13:53:47.055Z,56.58
2022-10-12T13:58:51.843Z,56.95
2022-10-12T14:04:04.356Z,57.31
2022-10-12T14:09:09.496Z,57.10
2022-10-12T14:14:34.391Z,57.27
2022-10-12T14:19:45.071Z,57.50
2022-10-12T14:24:47.096Z,56.90
2022-10-12T14:30:03.733Z,57.08
2022-10-12T14:35:22.095Z,56.63
2022-10-12T14:40:31.368Z,56.76
2022-10-12T14:45:33.555Z,56.98
2022-10-12T14:50:35.455Z,57.35
2022-10-12T14:55:37.268Z,57.55
2022-10-12T15:00:39.436Z,57.38
2022-10-12T15:05:40.918Z,57.50
2022-10-12T15:10:42.881Z,57.16
2022-10-12T15:15:47.050Z,57.84
2022-10-12T15:20:49.797Z,57.94
2022-10-12T15:25:54.058Z,58.29
2022-10-12T15:31:17.081Z,58.84
2022-10-12T15:36:19.603Z,59.62
2022-10-12T15:41:25.189Z,60.17
2022-10-12T15:46:27.458Z,60.55
2022-10-12T15:51:29.022Z,61.07
2022-10-12T15:56:30.859Z,61.83
2022-10-12T16:01:34.700Z,62.41
2022-10-12T16:06:36.211Z,63.13
2022-10-12T16:11:37.900Z,64.10
2022-10-12T16:16:39.602Z,65.64
2022-10-12T16:21:41.179Z,67.25
2022-10-12T16:26:45.105Z,68.48
2022-10-12T16:31:46.833Z,69.80
2022-10-12T16:36:50.065Z,70.72
2022-10-12T16:41:51.559Z,71.46
2022-10-12T16:46:53.071Z,72.17
2022-10-12T16:51:54.767Z,72.80
2022-10-12T16:56:57.511Z,73.81
2022-10-12T17:01:59.062Z,74.48
2022-10-12T17:07:00.511Z,75.13
2022-10-12T17:12:02.007Z,76.03
2022-10-12T17:17:04.025Z,76.52
2022-10-12T17:22:06.884Z,77.09
2022-10-12T17:27:10.107Z,77.64
2022-10-12T17:32:12.203Z,78.12
2022-10-12T17:37:15.478Z,78.55
2022-10-12T17:42:17.824Z,78.80
2022-10-12T17:47:19.936Z,79.03
2022-10-12T17:52:21.708Z,79.50
2022-10-12T17:57:23.429Z,79.81
2022-10-12T18:02:24.947Z,80.12
2022-10-12T18:07:26.447Z,80.36
2022-10-12T18:12:27.915Z,80.81
2022-10-12T18:17:29.538Z,81.18
2022-10-12T18:22:31.006Z,81.39
2022-10-12T18:27:34.117Z,81.86
2022-10-12T18:32:36.075Z,82.24
2022-10-12T18:37:37.742Z,82.69
2022-10-12T18:42:39.214Z,82.80
2022-10-12T18:47:40.705Z,83.20
2022-10-12T18:52:42.353Z,83.37
2022-10-12T18:57:44.072Z,83.56
2022-10-12T19:02:45.628Z,84.04
2022-10-12T19:07:47.121Z,83.83
2022-10-12T19:12:48.811Z,83.96
2022-10-12T19:17:50.270Z,84.22
2022-10-12T19:22:51.764Z,83.99
2022-10-12T19:27:53.228Z,84.31
2022-10-12T19:32:54.750Z,84.10
2022-10-12T19:37:56.848Z,84.18
2022-10-12T19:42:58.484Z,84.37
2022-10-12T19:47:59.975Z,84.04
2022-10-12T19:53:02.047Z,84.31
2022-10-12T19:58:03.564Z,84.20
2022-10-12T20:03:05.168Z,84.30
2022-10-12T20:08:06.691Z,84.46
2022-10-12T20:13:08.200Z,84.75
2022-10-12T20:18:10.087Z,84.93
2022-10-12T20:23:11.546Z,85.15
2022-10-12T20:28:14.300Z,85.19
2022-10-12T20:33:16.216Z,85.27
2022-10-12T20:38:18.235Z,85.33
2022-10-12T20:43:19.750Z,85.44
2022-10-12T20:48:21.643Z,85.48
2022-10-12T20:53:23.157Z,85.55
2022-10-12T20:58:27.916Z,85.52
2022-10-12T21:03:29.791Z,85.82
2022-10-12T21:08:31.683Z,85.88
2022-10-12T21:13:34.833Z,85.96
2022-10-12T21:18:38.356Z,86.14
2022-10-12T21:23:41.879Z,86.10
2022-10-12T21:28:44.504Z,86.26
2022-10-12T21:33:46.965Z,86.28
2022-10-12T21:38:49.388Z,86.13
2022-10-12T21:43:52.544Z,86.25
2022-10-12T21:48:54.706Z,86.10
2022-10-12T21:53:56.699Z,85.70
2022-10-12T21:59:01.582Z,85.57
2022-10-12T22:04:11.520Z,85.54
2022-10-12T22:09:16.765Z,85.24
2022-10-12T22:14:19.225Z,85.21
2022-10-12T22:19:21.555Z,85.22
2022-10-12T22:24:23.652Z,84.94
2022-10-12T22:29:26.147Z,84.98
2022-10-12T22:34:28.256Z,85.15
2022-10-12T22:39:29.797Z,85.13
2022-10-12T22:44:31.378Z,85.32
2022-10-12T22:49:32.826Z,85.48
2022-10-12T22:54:34.461Z,85.56
2022-10-12T22:59:36.464Z,85.94
2022-10-12T23:04:37.963Z,86.05
2022-10-12T23:09:41.194Z,86.25
2022-10-12T23:14:42.693Z,86.34
2022-10-12T23:19:44.309Z,86.67
2022-10-12T23:24:46.909Z,86.90
2022-10-12T23:29:48.622Z,86.83
2022-10-12T23:34:50.420Z,87.12
2022-10-12T23:39:52.403Z,87.35
2022-10-12T23:44:53.911Z,87.54
2022-10-12T23:49:55.680Z,87.76
2022-10-12T23:54:57.384Z,88.02
2022-10-12T23:59:59.212Z,88.06
